Time;durP1;ratioP1;P1;durP2;ratioP2;P2;SDS_P1;SDS_P2;PMS_P1;PMS_P2;Temp;Humidity;BMP_temperature;BMP_pressure;BME280_temperature;BME280_humidity;BME280_pressure;Samples;Min_cycle;Max_cycle;Signal;HPM_P1;HPM_P2
2022/04/24 00:01:04;;;;;;;19.05;13.90;;;;;;;7.65;100.00;93925.78;5049944;28;24477;-76
2022/04/24 00:03:30;;;;;;;16.85;13.63;;;;;;;7.68;100.00;93928.94;5050596;28;24426;-76
2022/04/24 00:05:57;;;;;;;16.00;13.93;;;;;;;7.59;100.00;93915.97;5050692;28;24423;-75
2022/04/24 00:08:23;;;;;;;13.95;12.55;;;;;;;7.56;100.00;93905.91;5050456;28;24430;-76
2022/04/24 00:10:50;;;;;;;16.52;14.77;;;;;;;7.48;100.00;93901.38;5050387;28;24800;-76
2022/04/24 00:13:17;;;;;;;15.90;12.75;;;;;;;7.59;100.00;93915.97;5050052;28;24426;-76
2022/04/24 00:15:43;;;;;;;14.10;12.68;;;;;;;7.54;100.00;93918.09;5050688;28;24419;-76
2022/04/24 00:18:11;;;;;;;14.23;12.40;;;;;;;7.37;100.00;93916.88;5050828;28;24477;-76
2022/04/24 00:20:38;;;;;;;13.23;11.95;;;;;;;7.33;100.00;93915.47;5050688;28;24434;-76
2022/04/24 00:23:04;;;;;;;15.60;11.93;;;;;;;7.24;100.00;93909.31;5050229;28;24427;-76
2022/04/24 00:25:31;;;;;;;15.60;13.05;;;;;;;7.24;100.00;93904.97;5050461;28;24481;-76
2022/04/24 00:27:58;;;;;;;13.80;12.38;;;;;;;7.26;100.00;93903.06;5050528;28;24438;-75
2022/04/24 00:30:25;;;;;;;14.10;12.60;;;;;;;7.32;100.00;93888.09;5050279;28;24994;-76
2022/04/24 00:32:51;;;;;;;13.88;12.50;;;;;;;7.31;100.00;93886.47;5050138;28;24451;-75
2022/04/24 00:35:19;;;;;;;17.52;12.80;;;;;;;7.34;100.00;93887.03;5050516;28;24430;-75
2022/04/24 00:37:45;;;;;;;14.52;12.98;;;;;;;7.48;100.00;93880.75;5050148;28;24423;-75
2022/04/24 00:40:12;;;;;;;16.40;14.02;;;;;;;7.54;100.00;93882.84;5050359;28;24450;-76
2022/04/24 00:42:39;;;;;;;20.25;15.68;;;;;;;7.63;100.00;93879.53;5049710;28;24432;-75
2022/04/24 00:45:06;;;;;;;15.93;14.43;;;;;;;7.64;100.00;93867.44;5050139;28;24517;-75
2022/04/24 00:47:33;;;;;;;15.55;13.82;;;;;;;7.63;100.00;93870.97;5050238;28;24881;-76
2022/04/24 00:49:59;;;;;;;15.10;13.63;;;;;;;7.60;100.00;93881.53;5050077;28;24427;-76
2022/04/24 00:52:27;;;;;;;14.80;13.40;;;;;;;7.61;100.00;93885.75;5049741;28;24451;-76
2022/04/24 00:54:54;;;;;;;15.27;13.70;;;;;;;7.60;100.00;93882.38;5049882;28;25030;-75
2022/04/24 00:57:20;;;;;;;15.20;13.68;;;;;;;7.60;100.00;93884.09;5050076;28;24959;-75
2022/04/24 00:59:47;;;;;;;15.65;13.98;;;;;;;7.64;100.00;93880.31;5050187;28;24423;-75
2022/04/24 01:02:13;;;;;;;14.95;13.55;;;;;;;7.68;100.00;93879.16;5049608;28;24777;-75
2022/04/24 01:04:40;;;;;;;14.82;13.25;;;;;;;7.73;100.00;93877.03;5049979;28;24780;-76
2022/04/24 01:07:08;;;;;;;16.42;14.45;;;;;;;7.76;100.00;93871.63;5049951;28;24415;-75
2022/04/24 01:09:36;;;;;;;15.90;14.27;;;;;;;7.73;100.00;93870.09;5049776;28;24432;-76
2022/04/24 01:12:04;;;;;;;17.92;16.08;;;;;;;7.69;100.00;93867.91;5050584;28;20775;-75
2022/04/24 01:14:32;;;;;;;18.35;16.05;;;;;;;7.63;100.00;93864.06;5053783;28;20762;-76
2022/04/24 01:16:59;;;;;;;17.02;14.88;;;;;;;7.67;100.00;93851.75;5053621;28;24598;-76
2022/04/24 01:19:26;;;;;;;15.65;14.05;;;;;;;7.75;100.00;93859.69;5053605;28;20762;-76
2022/04/24 01:21:55;;;;;;;16.27;14.40;;;;;;;7.79;100.00;93860.22;5053192;28;20810;-76
2022/04/24 01:24:23;;;;;;;15.50;13.93;;;;;;;7.78;100.00;93854.25;5053753;28;20807;-76
2022/04/24 01:26:50;;;;;;;14.53;13.20;;;;;;;7.81;100.00;93863.50;5053542;28;20821;-76
2022/04/24 01:29:17;;;;;;;13.18;11.80;;;;;;;7.71;100.00;93869.44;5053602;28;20758;-75
2022/04/24 01:31:45;;;;;;;12.95;11.52;;;;;;;7.66;100.00;93868.97;5053059;28;24504;-75
2022/04/24 01:34:12;;;;;;;12.65;11.43;;;;;;;7.66;100.00;93884.44;5053319;28;24502;-75
2022/04/24 01:36:38;;;;;;;13.63;12.33;;;;;;;7.68;100.00;93894.63;5053543;28;25037;-76
2022/04/24 01:39:06;;;;;;;15.27;13.87;;;;;;;7.69;100.00;93889.34;5053368;28;24815;-75
2022/04/24 01:41:32;;;;;;;16.92;15.30;;;;;;;7.62;100.00;93889.97;5052788;28;24489;-76
2022/04/24 01:43:59;;;;;;;17.45;14.98;;;;;;;7.56;100.00;93891.25;5053067;28;24469;-75
2022/04/24 01:46:26;;;;;;;17.40;15.60;;;;;;;7.64;100.00;93900.94;5052983;28;24461;-76
2022/04/24 01:48:52;;;;;;;16.80;14.77;;;;;;;7.70;100.00;93911.56;5052906;28;20771;-75
2022/04/24 01:51:19;;;;;;;16.80;15.10;;;;;;;7.67;100.00;93911.81;5052984;28;20817;-76
2022/04/24 01:53:46;;;;;;;16.88;15.23;;;;;;;7.68;100.00;93915.25;5052898;28;25086;-75
2022/04/24 01:56:14;;;;;;;16.90;15.10;;;;;;;7.74;100.00;93925.84;5052696;28;24792;-76
2022/04/24 01:58:41;;;;;;;19.60;14.73;;;;;;;7.67;100.00;93931.63;5052772;28;24827;-76
2022/04/24 02:01:08;;;;;;;19.10;14.95;;;;;;;7.67;100.00;93949.66;5052779;28;24812;-76
2022/04/24 02:03:36;;;;;;;18.50;16.50;;;;;;;7.55;100.00;93945.50;5052348;28;24761;-76
2022/04/24 02:06:03;;;;;;;17.30;15.50;;;;;;;7.60;100.00;93959.66;5052739;28;24447;-76
2022/04/24 02:08:31;;;;;;;18.08;14.82;;;;;;;7.54;100.00;93967.03;5052754;28;24419;-75
2022/04/24 02:10:58;;;;;;;17.65;15.95;;;;;;;7.54;100.00;93973.00;5052368;28;24820;-76
2022/04/24 02:13:26;;;;;;;16.77;15.13;;;;;;;7.59;100.00;93976.03;5052222;28;24438;-76
2022/04/24 02:15:52;;;;;;;15.75;14.15;;;;;;;7.61;100.00;93973.34;5052312;28;24431;-75
2022/04/24 02:18:18;;;;;;;16.00;14.50;;;;;;;7.70;100.00;93982.91;5052574;28;24428;-76
2022/04/24 02:20:45;;;;;;;16.10;14.30;;;;;;;7.72;100.00;93981.84;5052548;28;21129;-76
2022/04/24 02:23:11;;;;;;;16.42;14.57;;;;;;;7.76;100.00;93979.84;5051768;28;24979;-76
2022/04/24 02:25:38;;;;;;;16.73;14.75;;;;;;;7.87;100.00;93968.69;5051935;28;24781;-76
2022/04/24 02:28:05;;;;;;;16.10;14.60;;;;;;;7.89;100.00;93982.25;5052177;28;24952;-75
2022/04/24 02:30:35;;;;;;;19.48;14.93;;;;;;;7.89;100.00;93980.47;5052070;28;24423;-76
2022/04/24 02:33:01;;;;;;;19.20;15.43;;;;;;;7.87;100.00;93973.84;5051978;28;24454;-76
2022/04/24 02:35:30;;;;;;;17.20;14.57;;;;;;;7.88;100.00;93963.38;5052107;28;24805;-76
2022/04/24 02:37:56;;;;;;;18.17;15.73;;;;;;;7.89;100.00;93961.63;5051962;28;24952;-76
2022/04/24 02:40:23;;;;;;;17.35;15.43;;;;;;;7.72;100.00;93953.50;5052000;28;24431;-75
2022/04/24 02:42:51;;;;;;;18.15;16.25;;;;;;;7.61;100.00;93945.81;5066080;22;24460;-69
2022/04/24 02:45:18;;;;;;;18.63;16.45;;;;;;;7.57;100.00;93938.47;5051786;28;20754;-69
2022/04/24 02:47:47;;;;;;;25.25;17.50;;;;;;;7.47;100.00;93936.63;5052132;28;20820;-70
2022/04/24 02:50:14;;;;;;;19.50;17.48;;;;;;;7.34;100.00;93929.97;5051970;28;24426;-69
2022/04/24 02:52:48;;;;;;;19.88;17.13;;;;;;;7.33;100.00;93936.88;5051407;28;24447;-70
2022/04/24 02:55:15;;;;;;;19.23;17.20;;;;;;;7.32;100.00;93937.84;5051724;28;24508;-69
2022/04/24 02:57:42;;;;;;;21.55;17.40;;;;;;;7.23;100.00;93934.25;5051589;28;24510;-69
2022/04/24 03:00:10;;;;;;;18.65;16.90;;;;;;;7.25;100.00;93928.97;5051638;28;24964;-69
2022/04/24 03:02:42;;;;;;;19.88;17.45;;;;;;;7.24;100.00;93920.44;5051472;28;24473;-69
2022/04/24 03:05:10;;;;;;;20.75;17.05;;;;;;;7.35;100.00;93917.00;5051602;28;24837;-69
2022/04/24 03:07:37;;;;;;;18.07;16.33;;;;;;;7.41;100.00;93919.06;5051561;28;24427;-69
2022/04/24 03:10:04;;;;;;;24.30;16.88;;;;;;;7.49;100.00;93916.72;5051347;28;24443;-69
2022/04/24 03:12:30;;;;;;;17.05;14.57;;;;;;;7.57;100.00;93916.09;5050867;28;24447;-69
2022/04/24 03:14:57;;;;;;;15.85;14.05;;;;;;;7.67;100.00;93923.88;5051182;28;24513;-69
2022/04/24 03:17:23;;;;;;;15.65;14.18;;;;;;;7.92;100.00;93926.09;5051493;28;24415;-69
2022/04/24 03:19:50;;;;;;;17.45;15.63;;;;;;;8.17;100.00;93926.69;5051266;28;24894;-69
2022/04/24 03:22:18;;;;;;;20.67;15.52;;;;;;;8.11;100.00;93925.41;5051063;28;24415;-69
2022/04/24 03:24:45;;;;;;;18.20;16.35;;;;;;;7.77;100.00;93935.09;5051066;28;24426;-69
2022/04/24 03:27:12;;;;;;;17.23;15.57;;;;;;;8.08;100.00;93923.09;5051132;28;24426;-69
2022/04/24 03:29:38;;;;;;;17.98;16.27;;;;;;;8.09;100.00;93932.47;5051157;28;24411;-70
2022/04/24 03:32:06;;;;;;;17.75;15.88;;;;;;;7.69;100.00;93942.63;5050565;28;24983;-69
2022/04/24 03:34:32;;;;;;;19.25;17.25;;;;;;;7.54;100.00;93936.94;5047382;28;24442;-69
2022/04/24 03:36:59;;;;;;;18.80;17.10;;;;;;;7.57;100.00;93939.28;5050865;28;24785;-69
2022/04/24 03:39:26;;;;;;;19.40;17.45;;;;;;;7.52;100.00;93936.25;5050498;28;24455;-69
2022/04/24 03:41:53;;;;;;;21.20;17.53;;;;;;;7.51;100.00;93940.56;5050932;28;24427;-70
2022/04/24 03:44:19;;;;;;;19.08;17.17;;;;;;;7.63;100.00;93943.13;5051078;28;24427;-69
2022/04/24 03:46:46;;;;;;;19.83;17.85;;;;;;;7.77;100.00;93945.41;5050771;28;24803;-70
2022/04/24 03:49:12;;;;;;;19.13;17.13;;;;;;;7.73;100.00;93944.00;5050620;28;24428;-69
2022/04/24 03:51:38;;;;;;;19.45;17.35;;;;;;;7.67;100.00;93945.31;5050483;28;24481;-69
2022/04/24 03:54:05;;;;;;;18.10;16.45;;;;;;;7.68;100.00;93951.31;5050483;28;24494;-70
2022/04/24 03:56:33;;;;;;;18.00;16.35;;;;;;;7.66;100.00;93958.34;5050926;28;24415;-69
2022/04/24 03:58:59;;;;;;;19.27;17.38;;;;;;;7.70;100.00;93955.38;5050726;28;24827;-69
2022/04/24 04:01:26;;;;;;;17.90;16.17;;;;;;;7.69;100.00;93953.75;5050514;28;24419;-69
2022/04/24 04:03:52;;;;;;;19.02;16.98;;;;;;;7.63;100.00;93963.72;5050451;28;24484;-69
2022/04/24 04:06:20;;;;;;;19.27;17.30;;;;;;;7.59;100.00;93954.59;5050251;28;24430;-69
2022/04/24 04:08:46;;;;;;;19.25;17.35;;;;;;;7.67;100.00;93968.50;5050466;28;20759;-69
2022/04/24 04:11:13;;;;;;;17.48;15.88;;;;;;;7.66;100.00;93978.94;5050754;28;20759;-69
2022/04/24 04:13:41;;;;;;;17.48;15.73;;;;;;;7.45;100.00;93994.34;5050148;28;24458;-69
2022/04/24 04:16:07;;;;;;;18.75;16.30;;;;;;;7.45;100.00;93996.91;5050304;28;24419;-70
2022/04/24 04:18:34;;;;;;;16.35;14.80;;;;;;;7.57;100.00;93992.56;5050414;28;24512;-70
2022/04/24 04:21:00;;;;;;;18.50;16.55;;;;;;;7.64;100.00;93986.81;5050212;28;24423;-70
2022/04/24 04:23:27;;;;;;;17.92;16.08;;;;;;;7.65;100.00;93987.63;5050233;28;24445;-70
2022/04/24 04:25:53;;;;;;;15.77;14.07;;;;;;;7.59;100.00;93994.06;5050345;28;24473;-69
2022/04/24 04:28:20;;;;;;;12.45;10.90;;;;;;;7.71;100.00;93984.53;5050266;28;24832;-69
2022/04/24 04:30:48;;;;;;;10.30;8.63;;;;;;;7.61;100.00;93992.19;5050447;28;24469;-69
2022/04/24 04:33:15;;;;;;;8.73;6.10;;;;;;;7.59;100.00;94001.78;5046772;28;24462;-69
2022/04/24 04:35:41;;;;;;;3.87;3.37;;;;;;;7.42;100.00;94004.91;5049926;28;24512;-69
2022/04/24 04:38:07;;;;;;;3.10;2.40;;;;;;;7.16;100.00;94018.06;5050188;28;24430;-69
2022/04/24 04:40:34;;;;;;;3.97;2.60;;;;;;;7.18;100.00;94030.78;5050139;28;24422;-69
2022/04/24 04:43:00;;;;;;;2.90;1.90;;;;;;;7.13;100.00;94033.72;5049655;28;24426;-69
2022/04/24 04:45:27;;;;;;;4.18;0.98;;;;;;;6.95;100.00;94038.53;5050398;28;24468;-69
2022/04/24 04:47:55;;;;;;;1.67;0.55;;;;;;;6.79;100.00;94050.91;5052295;28;24419;-69
2022/04/24 04:50:21;;;;;;;1.92;0.50;;;;;;;6.57;100.00;94062.00;5053642;28;24419;-69
2022/04/24 04:52:47;;;;;;;0.85;0.40;;;;;;;6.46;100.00;94057.66;5053516;28;24446;-69
2022/04/24 04:55:14;;;;;;;1.47;0.37;;;;;;;6.40;100.00;94063.22;5053713;28;24426;-69
2022/04/24 04:57:41;;;;;;;0.73;0.30;;;;;;;6.14;100.00;94074.59;5053496;28;24465;-69
2022/04/24 05:00:09;;;;;;;0.52;0.28;;;;;;;6.19;100.00;94072.50;5053513;28;24800;-69
2022/04/24 05:02:39;;;;;;;0.60;0.25;;;;;;;6.04;100.00;94079.56;5052777;28;24994;-69
2022/04/24 05:05:08;;;;;;;0.68;0.25;;;;;;;5.98;100.00;94080.84;5053430;28;24815;-69
2022/04/24 05:07:35;;;;;;;0.88;0.20;;;;;;;5.93;100.00;94085.50;5053989;28;24415;-69
2022/04/24 05:10:02;;;;;;;0.17;0.10;;;;;;;5.87;100.00;94080.75;5053809;28;24821;-69
2022/04/24 05:12:30;;;;;;;1.10;0.20;;;;;;;5.86;100.00;94089.41;5053393;28;24448;-69
2022/04/24 05:15:01;;;;;;;1.40;0.20;;;;;;;5.85;100.00;94092.88;5053528;28;24424;-69
2022/04/24 05:17:28;;;;;;;0.30;0.20;;;;;;;5.82;100.00;94091.38;5053476;28;24991;-69
2022/04/24 05:19:54;;;;;;;1.75;0.20;;;;;;;5.80;100.00;94100.94;5053774;28;24510;-69
2022/04/24 05:22:22;;;;;;;0.08;0.00;;;;;;;5.86;100.00;94107.41;5053366;28;24442;-69
2022/04/24 05:24:49;;;;;;;1.70;0.10;;;;;;;5.81;100.00;94104.31;5053661;28;24430;-69
2022/04/24 05:27:15;;;;;;;2.00;0.20;;;;;;;5.75;100.00;94108.16;5053385;28;25043;-69
2022/04/24 05:29:42;;;;;;;0.40;0.20;;;;;;;5.71;100.00;94113.59;5053239;28;24422;-69
2022/04/24 05:32:10;;;;;;;0.55;0.10;;;;;;;5.76;100.00;94112.34;5053495;28;24480;-69
2022/04/24 05:34:37;;;;;;;0.40;0.20;;;;;;;5.86;100.00;94116.81;5053395;28;24987;-69
2022/04/24 05:37:04;;;;;;;0.20;0.10;;;;;;;5.75;100.00;94125.31;5053428;28;24518;-69
2022/04/24 05:39:32;;;;;;;0.30;0.10;;;;;;;5.87;100.00;94128.75;5053268;28;24426;-70
2022/04/24 05:41:59;;;;;;;0.20;0.10;;;;;;;5.90;100.00;94134.50;5052948;28;24770;-69
2022/04/24 05:44:25;;;;;;;0.30;0.10;;;;;;;5.95;100.00;94126.50;5053028;28;24415;-71
2022/04/24 05:46:52;;;;;;;0.27;0.10;;;;;;;5.89;100.00;94132.84;5053391;28;24426;-69
2022/04/24 05:49:19;;;;;;;0.08;0.00;;;;;;;5.94;100.00;94135.16;5052888;28;24416;-69
2022/04/24 05:51:45;;;;;;;3.33;0.10;;;;;;;5.88;100.00;94141.50;5052700;28;24773;-69
2022/04/24 05:54:12;;;;;;;0.50;0.20;;;;;;;5.90;100.00;94141.41;5052985;28;24442;-69
2022/04/24 05:56:40;;;;;;;0.20;0.10;;;;;;;5.90;100.00;94157.63;5053131;28;24426;-69
2022/04/24 05:59:06;;;;;;;0.80;0.10;;;;;;;5.96;100.00;94149.50;5051537;28;24426;-69
2022/04/24 06:01:33;;;;;;;0.10;0.10;;;;;;;6.01;100.00;94149.22;5052628;28;24407;-70
2022/04/24 06:03:59;;;;;;;0.50;0.10;;;;;;;5.97;100.00;94137.47;5053072;28;24423;-70
2022/04/24 06:06:26;;;;;;;0.38;0.10;;;;;;;5.90;100.00;94147.34;5052626;28;24843;-70
2022/04/24 06:08:53;;;;;;;0.20;0.10;;;;;;;5.91;100.00;94145.59;5052820;28;24511;-70
2022/04/24 06:11:19;;;;;;;0.40;0.20;;;;;;;5.94;100.00;94151.38;5052286;28;24419;-70
2022/04/24 06:13:47;;;;;;;0.10;0.10;;;;;;;5.99;100.00;94146.72;5052695;28;24455;-70
2022/04/24 06:16:14;;;;;;;0.10;0.10;;;;;;;5.98;100.00;94155.38;5052604;28;24498;-70
2022/04/24 06:18:40;;;;;;;0.28;0.10;;;;;;;5.99;100.00;94148.47;5052639;28;24426;-70
2022/04/24 06:21:07;;;;;;;1.17;0.30;;;;;;;6.04;100.00;94144.66;5052564;28;24420;-70
2022/04/24 06:23:34;;;;;;;0.20;0.10;;;;;;;5.99;100.00;94153.63;5052362;28;24472;-70
2022/04/24 06:26:00;;;;;;;1.65;0.20;;;;;;;5.96;100.00;94151.25;5052253;28;24419;-70
2022/04/24 06:28:27;;;;;;;0.50;0.30;;;;;;;6.02;100.00;94148.25;5052639;28;24419;-70
2022/04/24 06:30:54;;;;;;;0.35;0.30;;;;;;;6.04;100.00;94147.25;5052467;28;24426;-70
2022/04/24 06:33:21;;;;;;;1.38;0.32;;;;;;;6.12;100.00;94151.00;5052004;28;24477;-70
2022/04/24 06:35:47;;;;;;;0.60;0.20;;;;;;;6.17;100.00;94141.22;5052206;28;24473;-71
2022/04/24 06:38:14;;;;;;;0.30;0.20;;;;;;;6.13;100.00;94144.94;5051997;28;24423;-71
2022/04/24 06:40:41;;;;;;;1.00;0.52;;;;;;;6.10;100.00;94150.28;5052146;28;24941;-70
2022/04/24 06:43:08;;;;;;;0.90;0.40;;;;;;;6.14;100.00;94147.38;5051812;28;24781;-70
2022/04/24 06:45:36;;;;;;;0.50;0.30;;;;;;;6.11;100.00;94159.63;5050148;28;24548;-70
2022/04/24 06:48:06;;;;;;;0.43;0.22;;;;;;;6.19;100.00;94150.47;5050968;28;24497;-70
2022/04/24 06:50:34;;;;;;;0.95;0.20;;;;;;;6.24;100.00;94150.94;5045060;28;24430;-70
2022/04/24 06:53:02;;;;;;;0.50;0.20;;;;;;;6.21;100.00;94145.22;5051457;28;24521;-69
2022/04/24 06:55:29;;;;;;;0.30;0.22;;;;;;;6.27;100.00;94148.16;5049799;28;24839;-69
2022/04/24 06:57:56;;;;;;;1.10;0.30;;;;;;;6.20;100.00;94146.16;5051811;28;24808;-69
2022/04/24 07:00:24;;;;;;;1.00;0.20;;;;;;;6.21;100.00;94152.91;5046392;28;24488;-69
2022/04/24 07:02:51;;;;;;;0.30;0.20;;;;;;;6.17;100.00;94144.59;5051358;28;24840;-69
2022/04/24 07:05:20;;;;;;;0.40;0.22;;;;;;;6.20;100.00;94153.84;5051585;28;24418;-69
2022/04/24 07:07:47;;;;;;;1.42;0.20;;;;;;;6.25;100.00;94154.34;5056812;28;24430;-69
2022/04/24 07:10:14;;;;;;;0.32;0.25;;;;;;;6.24;100.00;94157.84;5071485;28;24484;-69
2022/04/24 07:12:48;;;;;;;0.60;0.30;;;;;;;6.25;100.00;94155.16;5071323;28;24506;-69
2022/04/24 07:15:15;;;;;;;1.00;0.40;;;;;;;6.30;100.00;94155.66;5071381;28;24443;-69
2022/04/24 07:17:42;;;;;;;0.47;0.30;;;;;;;6.25;100.00;94150.00;5071408;28;24426;-69
2022/04/24 07:20:10;;;;;;;0.90;0.30;;;;;;;6.35;100.00;94152.75;5071354;28;24449;-69
2022/04/24 07:22:48;;;;;;;0.45;0.30;;;;;;;6.39;100.00;94151.59;5071173;28;24426;-69
2022/04/24 07:25:16;;;;;;;0.38;0.20;;;;;;;6.42;100.00;94151.38;5071216;28;24816;-69
2022/04/24 07:27:43;;;;;;;0.63;0.40;;;;;;;6.38;100.00;94149.97;5060008;28;24500;-70
2022/04/24 07:30:14;;;;;;;0.60;0.20;;;;;;;6.41;100.00;94148.91;5050684;28;24427;-70
2022/04/24 07:32:42;;;;;;;0.30;0.30;;;;;;;6.32;100.00;94149.59;5050370;28;24522;-72
2022/04/24 07:35:11;;;;;;;0.70;0.60;;;;;;;6.37;100.00;94147.50;5050846;28;24446;-68
2022/04/24 07:37:38;;;;;;;1.05;0.73;;;;;;;6.35;100.00;94137.31;5045238;28;24527;-70
2022/04/24 07:40:08;;;;;;;2.97;1.77;;;;;;;6.36;100.00;94133.81;5031023;28;24932;-70
2022/04/24 07:42:45;;;;;;;1.08;0.47;;;;;;;6.39;100.00;94138.75;5030242;28;24790;-70
2022/04/24 07:45:12;;;;;;;1.27;0.70;;;;;;;6.39;100.00;94137.94;5045103;28;25147;-70
2022/04/24 07:47:38;;;;;;;1.60;0.50;;;;;;;6.38;100.00;94137.09;5045873;28;24542;-70
2022/04/24 07:50:06;;;;;;;0.50;0.40;;;;;;;6.30;100.00;94137.66;5050862;28;24512;-70
2022/04/24 07:52:33;;;;;;;0.25;0.20;;;;;;;6.36;100.00;94141.53;5050132;28;24501;-70
2022/04/24 07:54:59;;;;;;;1.87;0.50;;;;;;;6.40;100.00;94145.50;5039814;28;24486;-70
2022/04/24 07:57:27;;;;;;;1.80;0.80;;;;;;;6.39;100.00;94150.78;5030431;28;24434;-70
2022/04/24 07:59:53;;;;;;;2.80;0.60;;;;;;;6.43;100.00;94149.63;5030241;28;24529;-70
2022/04/24 08:02:20;;;;;;;0.70;0.50;;;;;;;6.47;100.00;94154.44;5030294;28;24416;-70
2022/04/24 08:04:46;;;;;;;1.20;0.60;;;;;;;6.49;100.00;94156.91;5043983;28;24432;-72
2022/04/24 08:07:12;;;;;;;0.70;0.60;;;;;;;6.53;100.00;94164.28;5050395;28;24777;-70
2022/04/24 08:09:39;;;;;;;0.80;0.65;;;;;;;6.62;100.00;94174.84;5033407;28;24485;-70
2022/04/24 08:12:06;;;;;;;2.72;0.70;;;;;;;6.64;100.00;94167.84;5029762;28;24428;-70
2022/04/24 08:14:34;;;;;;;0.93;0.57;;;;;;;6.67;100.00;94172.72;5030045;28;24502;-70
2022/04/24 08:17:00;;;;;;;1.00;0.50;;;;;;;6.79;100.00;94177.00;5048112;28;24442;-70
2022/04/24 08:19:27;;;;;;;1.75;0.50;;;;;;;6.91;100.00;94175.28;5048817;28;24465;-70
2022/04/24 08:21:53;;;;;;;0.70;0.30;;;;;;;6.94;100.00;94175.06;5047492;28;24446;-70
2022/04/24 08:24:20;;;;;;;0.50;0.40;;;;;;;7.02;100.00;94180.44;5048933;28;24461;-70
2022/04/24 08:26:46;;;;;;;0.35;0.30;;;;;;;7.01;100.00;94182.22;5048379;28;24415;-70
2022/04/24 08:29:13;;;;;;;0.32;0.32;;;;;;;7.11;100.00;94176.34;5049968;28;24971;-69
2022/04/24 08:31:40;;;;;;;0.25;0.20;;;;;;;7.15;100.00;94183.72;5050082;28;24430;-71
2022/04/24 08:34:07;;;;;;;0.63;0.40;;;;;;;7.21;100.00;94182.47;5050567;28;20779;-72
2022/04/24 08:36:33;;;;;;;0.60;0.50;;;;;;;7.19;100.00;94182.59;5050216;28;24422;-71
2022/04/24 08:39:00;;;;;;;0.57;0.50;;;;;;;7.21;100.00;94175.56;5050665;28;24419;-71
2022/04/24 08:41:30;;;;;;;0.80;0.68;;;;;;;7.23;100.00;94178.84;5049817;28;25042;-71
2022/04/24 08:43:56;;;;;;;0.90;0.70;;;;;;;7.33;100.00;94178.16;5072123;22;24574;-74
2022/04/24 08:46:24;;;;;;;0.82;0.45;;;;;;;7.33;100.00;94181.53;5029990;28;24439;-75
2022/04/24 08:48:52;;;;;;;0.63;0.40;;;;;;;7.23;100.00;94183.16;5030119;28;24416;-75
2022/04/24 08:51:20;;;;;;;1.55;0.40;;;;;;;7.19;100.00;94189.47;5030117;28;21167;-75
2022/04/24 08:53:49;;;;;;;2.47;0.50;;;;;;;7.15;100.00;94200.94;5030135;28;24781;-75
2022/04/24 08:56:16;;;;;;;0.50;0.30;;;;;;;7.15;100.00;94196.59;5029991;28;21360;-75
2022/04/24 08:58:43;;;;;;;1.20;0.90;;;;;;;7.22;100.00;94195.22;5030059;28;24420;-75
2022/04/24 09:01:09;;;;;;;3.53;2.70;;;;;;;7.19;100.00;94197.19;5029913;28;24419;-75
2022/04/24 09:03:35;;;;;;;1.85;1.27;;;;;;;7.29;100.00;94205.88;5029042;28;24968;-74
2022/04/24 09:06:03;;;;;;;2.88;2.30;;;;;;;7.25;100.00;94200.13;5029651;28;24419;-74
2022/04/24 09:08:32;;;;;;;2.63;0.60;;;;;;;7.25;100.00;94199.31;5029751;28;24432;-75
2022/04/24 09:10:59;;;;;;;1.40;0.70;;;;;;;7.32;100.00;94205.66;5029994;28;24519;-74
2022/04/24 09:13:31;;;;;;;1.42;0.45;;;;;;;7.27;100.00;94207.78;5030063;28;24423;-74
2022/04/24 09:15:59;;;;;;;0.77;0.40;;;;;;;7.19;100.00;94204.91;5029597;28;24452;-75
2022/04/24 09:18:38;;;;;;;0.40;0.30;;;;;;;7.29;100.00;94208.47;5030075;28;20841;-75
2022/04/24 09:21:06;;;;;;;0.40;0.32;;;;;;;7.24;100.00;94203.66;5029897;28;21113;-74
2022/04/24 09:23:36;;;;;;;1.00;0.50;;;;;;;7.26;100.00;94198.38;5029802;28;24539;-75
2022/04/24 09:26:03;;;;;;;1.48;0.50;;;;;;;7.34;100.00;94206.38;5029855;28;24420;-74
2022/04/24 09:28:36;;;;;;;0.60;0.47;;;;;;;7.29;100.00;94200.72;5029838;28;21352;-74
2022/04/24 09:31:03;;;;;;;1.80;0.87;;;;;;;7.36;100.00;94203.69;5029919;28;20847;-75
2022/04/24 09:33:35;;;;;;;1.38;0.85;;;;;;;7.35;100.00;94199.47;5030815;28;24420;-75
2022/04/24 09:36:02;;;;;;;1.50;0.50;;;;;;;7.42;100.00;94205.81;5033513;28;20779;-75
2022/04/24 09:38:30;;;;;;;1.85;0.95;;;;;;;7.43;100.00;94200.53;5033151;28;24971;-72
2022/04/24 09:40:56;;;;;;;0.82;0.63;;;;;;;7.57;100.00;94198.66;5022562;28;24440;-74
2022/04/24 09:43:23;;;;;;;0.85;0.47;;;;;;;7.55;100.00;94203.91;5016839;28;24432;-74
2022/04/24 09:45:53;;;;;;;1.33;0.57;;;;;;;7.55;100.00;94210.84;5025707;28;24960;-73
2022/04/24 09:48:21;;;;;;;1.20;0.60;;;;;;;7.58;100.00;94210.59;5034275;28;24481;-74
2022/04/24 09:50:48;;;;;;;1.00;0.63;;;;;;;7.57;100.00;94222.66;5033444;28;20765;-75
2022/04/24 09:53:16;;;;;;;0.52;0.38;;;;;;;7.57;100.00;94222.66;5032952;28;24423;-75
2022/04/24 09:55:45;;;;;;;0.30;0.30;;;;;;;7.55;100.00;94228.88;5034035;28;20780;-75
2022/04/24 09:58:12;;;;;;;0.65;0.38;;;;;;;7.56;100.00;94235.66;5032923;28;24419;-74
2022/04/24 10:00:40;;;;;;;4.90;0.50;;;;;;;7.48;100.00;94238.81;5032695;28;24857;-75
2022/04/24 10:03:08;;;;;;;0.85;0.30;;;;;;;7.56;100.00;94235.66;5033016;28;20764;-75
2022/04/24 10:05:34;;;;;;;0.50;0.40;;;;;;;7.51;100.00;94241.16;5032841;28;24427;-75
2022/04/24 10:08:07;;;;;;;0.60;0.20;;;;;;;7.55;100.00;94240.00;5033198;28;20849;-75
2022/04/24 10:10:34;;;;;;;0.30;0.30;;;;;;;7.59;100.00;94245.72;5032863;28;24439;-75
2022/04/24 10:13:05;;;;;;;1.40;0.50;;;;;;;7.64;100.00;94241.88;5032333;28;24427;-75
2022/04/24 10:15:33;;;;;;;1.60;0.40;;;;;;;7.55;100.00;94249.47;5032780;28;20780;-75
2022/04/24 10:18:16;;;;;;;0.65;0.43;;;;;;;7.55;100.00;94254.63;5032666;28;24490;-74
2022/04/24 10:21:18;;;;;;;0.73;0.50;;;;;;;7.56;100.00;94249.34;5032612;28;24981;-75
2022/04/24 10:23:44;;;;;;;1.15;0.85;;;;;;;7.55;100.00;94249.47;5029323;28;20763;-74
2022/04/24 10:26:18;;;;;;;1.00;0.45;;;;;;;7.53;100.00;94259.91;5032492;28;24419;-75
2022/04/24 10:28:47;;;;;;;2.60;0.68;;;;;;;7.56;100.00;94256.25;5032453;28;24423;-75
2022/04/24 10:31:15;;;;;;;1.38;0.73;;;;;;;7.61;100.00;94261.91;5032559;28;21325;-75
2022/04/24 10:33:51;;;;;;;0.45;0.30;;;;;;;7.64;100.00;94267.66;5032422;28;20764;-75
2022/04/24 10:36:18;;;;;;;1.50;0.40;;;;;;;7.68;100.00;94275.97;5032637;28;21387;-75
2022/04/24 10:38:50;;;;;;;1.88;0.50;;;;;;;7.65;100.00;94271.88;5032297;28;21305;-75
2022/04/24 10:41:19;;;;;;;0.60;0.40;;;;;;;7.71;100.00;94273.13;5032159;28;20728;-74
2022/04/24 10:43:49;;;;;;;0.55;0.45;;;;;;;7.76;100.00;94265.91;5032033;28;20764;-75
2022/04/24 10:46:20;;;;;;;0.43;0.40;;;;;;;7.78;100.00;94279.47;5031892;28;20736;-75
2022/04/24 10:48:48;;;;;;;0.80;0.30;;;;;;;7.74;100.00;94271.16;5032159;28;20685;-75
2022/04/24 10:51:27;;;;;;;0.50;0.40;;;;;;;7.81;100.00;94270.69;5032562;28;20764;-75
2022/04/24 10:53:58;;;;;;;1.30;0.60;;;;;;;7.89;100.00;94269.19;5032239;28;20839;-76
2022/04/24 10:56:25;;;;;;;1.10;0.55;;;;;;;7.90;100.00;94270.84;5031853;28;21261;-75
2022/04/24 10:58:53;;;;;;;0.80;0.40;;;;;;;7.95;100.00;94276.44;5031945;28;20832;-75
2022/04/24 11:01:20;;;;;;;1.23;0.52;;;;;;;7.93;100.00;94277.50;5031843;28;20953;-76
2022/04/24 11:03:47;;;;;;;0.60;0.40;;;;;;;8.06;100.00;94269.66;5030156;28;24442;-75
2022/04/24 11:06:18;;;;;;;0.38;0.30;;;;;;;8.20;100.00;94274.59;5031589;28;24976;-74
2022/04/24 11:08:45;;;;;;;0.40;0.20;;;;;;;8.27;100.00;94275.75;5031632;28;24465;-73
2022/04/24 11:11:14;;;;;;;1.02;0.40;;;;;;;8.29;100.00;94278.19;5031619;28;24435;-74
2022/04/24 11:13:41;;;;;;;0.30;0.30;;;;;;;8.13;100.00;94273.41;5031233;28;20921;-74
2022/04/24 11:16:09;;;;;;;0.60;0.38;;;;;;;8.20;100.00;94270.25;5031677;28;20781;-74
2022/04/24 11:18:36;;;;;;;0.40;0.20;;;;;;;8.23;100.00;94277.75;5031798;28;20759;-74
2022/04/24 11:21:04;;;;;;;0.77;0.50;;;;;;;8.24;100.00;94279.38;5031567;28;20819;-74
2022/04/24 11:23:32;;;;;;;0.77;0.38;;;;;;;8.28;100.00;94284.31;5031450;28;20802;-74
2022/04/24 11:26:01;;;;;;;0.85;0.57;;;;;;;8.38;100.00;94288.66;5031125;28;21227;-74
2022/04/24 11:28:38;;;;;;;2.60;0.55;;;;;;;8.39;100.00;94290.28;5031637;28;20818;-74